sensor_id;sensor_type;location;lat;lon;timestamp;pressure;altitude;pressure_sealevel;temperature;humidity
77263;BME280;66373;52.334;4.806;2023-04-05T00:02:03;102498.78;;;18.59;45.05
77263;BME280;66373;52.334;4.806;2023-04-05T00:04:30;102500.47;;;18.57;44.90
77263;BME280;66373;52.334;4.806;2023-04-05T00:07:00;102488.28;;;18.52;44.92
77263;BME280;66373;52.334;4.806;2023-04-05T00:09:32;102499.59;;;18.55;44.82
77263;BME280;66373;52.334;4.806;2023-04-05T00:12:01;102495.25;;;18.54;44.96
77263;BME280;66373;52.334;4.806;2023-04-05T00:14:30;102498.72;;;18.53;44.72
77263;BME280;66373;52.334;4.806;2023-04-05T00:16:57;102487.41;;;18.50;45.05
77263;BME280;66373;52.334;4.806;2023-04-05T00:19:25;102474.38;;;18.45;44.71
77263;BME280;66373;52.334;4.806;2023-04-05T00:21:52;102488.28;;;18.50;45.13
77263;BME280;66373;52.334;4.806;2023-04-05T00:24:19;102478.72;;;18.49;44.83
77263;BME280;66373;52.334;4.806;2023-04-05T00:26:47;102484.81;;;18.48;44.76
77263;BME280;66373;52.334;4.806;2023-04-05T00:29:15;102470.91;;;18.46;44.71
77263;BME280;66373;52.334;4.806;2023-04-05T00:31:44;102468.28;;;18.46;44.89
77263;BME280;66373;52.334;4.806;2023-04-05T00:34:11;102454.38;;;18.32;44.94
77263;BME280;66373;52.334;4.806;2023-04-05T00:36:39;102464.84;;;18.41;44.77
77263;BME280;66373;52.334;4.806;2023-04-05T00:39:06;102467.44;;;18.43;44.68
77263;BME280;66373;52.334;4.806;2023-04-05T00:41:33;102463.97;;;18.42;45.00
77263;BME280;66373;52.334;4.806;2023-04-05T00:44:01;102459.59;;;18.37;44.61
77263;BME280;66373;52.334;4.806;2023-04-05T00:46:29;102468.31;;;18.40;44.81
77263;BME280;66373;52.334;4.806;2023-04-05T00:48:58;102460.47;;;18.39;44.69
77263;BME280;66373;52.334;4.806;2023-04-05T00:51:25;102462.22;;;18.38;44.56
77263;BME280;66373;52.334;4.806;2023-04-05T00:53:53;102462.22;;;18.38;45.02
77263;BME280;66373;52.334;4.806;2023-04-05T00:56:21;102464.81;;;18.37;44.71
77263;BME280;66373;52.334;4.806;2023-04-05T00:58:49;102457.00;;;18.35;44.62
77263;BME280;66373;52.334;4.806;2023-04-05T01:01:18;102432.59;;;18.21;44.78
77263;BME280;66373;52.334;4.806;2023-04-05T01:03:51;102450.00;;;18.29;44.83
77263;BME280;66373;52.334;4.806;2023-04-05T01:06:35;102437.84;;;18.24;44.75
77263;BME280;66373;52.334;4.806;2023-04-05T01:09:13;102445.69;;;18.31;44.62
77263;BME280;66373;52.334;4.806;2023-04-05T01:11:46;102447.41;;;18.31;44.61
77263;BME280;66373;52.334;4.806;2023-04-05T01:14:14;102443.06;;;18.27;44.45
77263;BME280;66373;52.334;4.806;2023-04-05T01:16:42;102443.06;;;18.27;44.57
77263;BME280;66373;52.334;4.806;2023-04-05T01:19:09;102453.47;;;18.28;44.65
77263;BME280;66373;52.334;4.806;2023-04-05T01:22:02;102434.38;;;18.25;44.70
77263;BME280;66373;52.334;4.806;2023-04-05T01:24:50;102438.72;;;18.26;44.44
77263;BME280;66373;52.334;4.806;2023-04-05T01:27:31;102436.09;;;18.23;44.65
77263;BME280;66373;52.334;4.806;2023-04-05T01:30:09;102435.22;;;18.24;44.63
77263;BME280;66373;52.334;4.806;2023-04-05T01:32:46;102428.25;;;18.20;44.60
77263;BME280;66373;52.334;4.806;2023-04-05T01:35:21;102429.16;;;18.19;44.38
77263;BME280;66373;52.334;4.806;2023-04-05T01:37:56;102437.81;;;18.21;44.75
77263;BME280;66373;52.334;4.806;2023-04-05T01:40:26;102421.31;;;18.14;44.52
77263;BME280;66373;52.334;4.806;2023-04-05T01:42:54;102429.16;;;18.19;44.19
77263;BME280;66373;52.334;4.806;2023-04-05T01:45:23;102410.00;;;18.08;44.48
77263;BME280;66373;52.334;4.806;2023-04-05T01:47:50;102418.72;;;18.16;44.36
77263;BME280;66373;52.334;4.806;2023-04-05T01:50:19;102413.53;;;18.16;44.49
77263;BME280;66373;52.334;4.806;2023-04-05T01:52:46;102400.44;;;18.05;44.44
77263;BME280;66373;52.334;4.806;2023-04-05T01:55:15;102407.44;;;18.15;44.61
77263;BME280;66373;52.334;4.806;2023-04-05T01:57:43;102404.81;;;18.09;44.59
77263;BME280;66373;52.334;4.806;2023-04-05T02:00:11;102400.47;;;18.13;44.39
77263;BME280;66373;52.334;4.806;2023-04-05T02:02:40;102374.38;;;17.96;44.44
77263;BME280;66373;52.334;4.806;2023-04-05T02:05:08;102406.56;;;18.12;44.60
77263;BME280;66373;52.334;4.806;2023-04-05T02:07:36;102400.47;;;18.11;44.60
77263;BME280;66373;52.334;4.806;2023-04-05T02:10:04;102376.97;;;17.94;44.35
77263;BME280;66373;52.334;4.806;2023-04-05T02:12:31;102390.91;;;18.09;44.35
77263;BME280;66373;52.334;4.806;2023-04-05T02:14:59;102388.31;;;18.09;44.27
77263;BME280;66373;52.334;4.806;2023-04-05T02:17:26;102390.03;;;18.08;44.28
77263;BME280;66373;52.334;4.806;2023-04-05T02:20:00;102384.84;;;18.07;44.44
77263;BME280;66373;52.334;4.806;2023-04-05T02:22:32;102380.50;;;18.06;44.43
77263;BME280;66373;52.334;4.806;2023-04-05T02:24:59;102381.34;;;18.05;44.49
77263;BME280;66373;52.334;4.806;2023-04-05T02:27:28;102382.22;;;18.04;44.41
77263;BME280;66373;52.334;4.806;2023-04-05T02:29:56;102377.88;;;18.03;44.44
77263;BME280;66373;52.334;4.806;2023-04-05T02:32:24;102371.78;;;18.02;44.32
77263;BME280;66373;52.334;4.806;2023-04-05T02:34:51;102344.84;;;17.88;44.55
77263;BME280;66373;52.334;4.806;2023-04-05T02:37:23;102352.69;;;17.92;44.39
77263;BME280;66373;52.334;4.806;2023-04-05T02:39:52;102333.53;;;17.81;44.38
77263;BME280;66373;52.334;4.806;2023-04-05T02:42:19;102367.44;;;18.00;44.42
77263;BME280;66373;52.334;4.806;2023-04-05T02:44:51;102368.31;;;17.98;44.45
77263;BME280;66373;52.334;4.806;2023-04-05T02:47:20;102365.69;;;17.97;44.27
77263;BME280;66373;52.334;4.806;2023-04-05T02:49:53;102367.44;;;17.96;44.42
77263;BME280;66373;52.334;4.806;2023-04-05T02:52:24;102347.44;;;17.86;44.37
77263;BME280;66373;52.334;4.806;2023-04-05T02:54:51;102361.34;;;17.94;44.01
77263;BME280;66373;52.334;4.806;2023-04-05T02:57:24;102317.00;;;17.72;44.37
77263;BME280;66373;52.334;4.806;2023-04-05T03:00:07;102352.69;;;17.89;44.33
77263;BME280;66373;52.334;4.806;2023-04-05T03:02:37;102354.41;;;17.90;44.34
77263;BME280;66373;52.334;4.806;2023-04-05T03:05:05;102356.16;;;17.91;44.32
77263;BME280;66373;52.334;4.806;2023-04-05T03:07:36;102355.28;;;17.89;44.43
77263;BME280;66373;52.334;4.806;2023-04-05T03:10:10;102349.19;;;17.86;44.48
77263;BME280;66373;52.334;4.806;2023-04-05T03:12:40;102347.44;;;17.86;44.45
77263;BME280;66373;52.334;4.806;2023-04-05T03:15:09;102347.44;;;17.86;44.37
77263;BME280;66373;52.334;4.806;2023-04-05T03:17:40;102340.50;;;17.85;44.48
77263;BME280;66373;52.334;4.806;2023-04-05T03:20:11;102330.06;;;17.82;44.27
77263;BME280;66373;52.334;4.806;2023-04-05T03:22:41;102333.56;;;17.86;44.36
77263;BME280;66373;52.334;4.806;2023-04-05T03:25:10;102330.06;;;17.82;44.27
77263;BME280;66373;52.334;4.806;2023-04-05T03:27:43;102322.28;;;17.84;44.22
77263;BME280;66373;52.334;4.806;2023-04-05T03:30:14;102332.69;;;17.82;44.30
77263;BME280;66373;52.334;4.806;2023-04-05T03:32:56;102330.06;;;17.82;44.36
77263;BME280;66373;52.334;4.806;2023-04-05T03:35:38;102320.50;;;17.75;44.26
77263;BME280;66373;52.334;4.806;2023-04-05T03:38:10;102323.97;;;17.77;44.17
77263;BME280;66373;52.334;4.806;2023-04-05T03:40:45;102338.75;;;17.81;44.32
77263;BME280;66373;52.334;4.806;2023-04-05T03:43:12;102325.69;;;17.74;44.01
77263;BME280;66373;52.334;4.806;2023-04-05T03:45:40;102332.66;;;17.78;44.16
77263;BME280;66373;52.334;4.806;2023-04-05T03:48:08;102324.81;;;17.70;44.03
77263;BME280;66373;52.334;4.806;2023-04-05T03:50:35;102327.44;;;17.76;44.26
77263;BME280;66373;52.334;4.806;2023-04-05T03:53:02;102333.50;;;17.75;44.14
77263;BME280;66373;52.334;4.806;2023-04-05T03:55:32;102333.50;;;17.75;44.35
77263;BME280;66373;52.334;4.806;2023-04-05T03:58:03;102333.50;;;17.75;44.03
77263;BME280;66373;52.334;4.806;2023-04-05T04:00:34;102331.75;;;17.70;44.30
77263;BME280;66373;52.334;4.806;2023-04-05T04:03:13;102342.19;;;17.74;44.22
77263;BME280;66373;52.334;4.806;2023-04-05T04:05:44;102334.38;;;17.73;44.28
77263;BME280;66373;52.334;4.806;2023-04-05T04:08:12;102338.72;;;17.72;44.21
77263;BME280;66373;52.334;4.806;2023-04-05T04:10:41;102326.56;;;17.65;44.45
77263;BME280;66373;52.334;4.806;2023-04-05T04:13:26;102316.06;;;17.56;44.01
77263;BME280;66373;52.334;4.806;2023-04-05T04:16:10;102331.75;;;17.68;44.22
77263;BME280;66373;52.334;4.806;2023-04-05T04:18:43;102328.28;;;17.69;44.21
77263;BME280;66373;52.334;4.806;2023-04-05T04:21:30;102318.75;;;17.67;44.36
77263;BME280;66373;52.334;4.806;2023-04-05T04:24:10;102309.13;;;17.58;44.38
77263;BME280;66373;52.334;4.806;2023-04-05T04:26:44;102313.53;;;17.65;44.42
77263;BME280;66373;52.334;4.806;2023-04-05T04:29:35;102325.69;;;17.66;44.38
77263;BME280;66373;52.334;4.806;2023-04-05T04:32:27;102328.25;;;17.63;44.19
77263;BME280;66373;52.334;4.806;2023-04-05T04:35:29;102325.69;;;17.65;44.28
77263;BME280;66373;52.334;4.806;2023-04-05T04:38:18;102325.66;;;17.63;44.26
77263;BME280;66373;52.334;4.806;2023-04-05T04:41:13;102324.78;;;17.62;44.24
77263;BME280;66373;52.334;4.806;2023-04-05T04:44:02;102326.50;;;17.62;44.24
77263;BME280;66373;52.334;4.806;2023-04-05T04:46:32;102316.94;;;17.58;44.17
77263;BME280;66373;52.334;4.806;2023-04-05T04:49:45;102322.16;;;17.59;44.97
77263;BME280;66373;52.334;4.806;2023-04-05T04:52:13;102285.63;;;17.34;45.93
77263;BME280;66373;52.334;4.806;2023-04-05T04:54:41;102330.81;;;17.58;45.82
77263;BME280;66373;52.334;4.806;2023-04-05T04:57:12;102314.28;;;17.49;45.78
77263;BME280;66373;52.334;4.806;2023-04-05T04:59:40;102327.34;;;17.58;45.99
77263;BME280;66373;52.334;4.806;2023-04-05T05:02:08;102326.47;;;17.56;46.09
77263;BME280;66373;52.334;4.806;2023-04-05T05:04:36;102325.63;;;17.58;45.97
77263;BME280;66373;52.334;4.806;2023-04-05T05:07:03;102324.72;;;17.55;46.13
77263;BME280;66373;52.334;4.806;2023-04-05T05:09:32;102312.56;;;17.49;46.12
77263;BME280;66373;52.334;4.806;2023-04-05T05:11:59;102320.41;;;17.57;46.25
77263;BME280;66373;52.334;4.806;2023-04-05T05:14:27;102323.00;;;17.57;46.44
77263;BME280;66373;52.334;4.806;2023-04-05T05:16:56;102318.66;;;17.53;46.25
77263;BME280;66373;52.334;4.806;2023-04-05T05:19:27;102319.53;;;17.55;46.33
77263;BME280;66373;52.334;4.806;2023-04-05T05:21:55;102320.41;;;17.55;46.64
77263;BME280;66373;52.334;4.806;2023-04-05T05:24:23;102319.50;;;17.52;46.51
77263;BME280;66373;52.334;4.806;2023-04-05T05:26:50;102305.56;;;17.42;46.44
77263;BME280;66373;52.334;4.806;2023-04-05T05:29:18;102323.00;;;17.54;46.44
77263;BME280;66373;52.334;4.806;2023-04-05T05:31:46;102323.00;;;17.54;46.60
77263;BME280;66373;52.334;4.806;2023-04-05T05:34:15;102323.00;;;17.54;46.75
77263;BME280;66373;52.334;4.806;2023-04-05T05:36:56;102323.84;;;17.53;46.89
77263;BME280;66373;52.334;4.806;2023-04-05T05:39:23;102324.72;;;17.52;47.04
77263;BME280;66373;52.334;4.806;2023-04-05T05:41:51;102318.63;;;17.51;47.09
77263;BME280;66373;52.334;4.806;2023-04-05T05:44:18;102329.91;;;17.52;46.88
77263;BME280;66373;52.334;4.806;2023-04-05T05:46:45;102309.06;;;17.43;47.04
77263;BME280;66373;52.334;4.806;2023-04-05T05:49:15;102328.19;;;17.51;46.99
77263;BME280;66373;52.334;4.806;2023-04-05T05:51:42;102327.31;;;17.50;46.86
77263;BME280;66373;52.334;4.806;2023-04-05T05:54:09;102332.50;;;17.50;47.11
77263;BME280;66373;52.334;4.806;2023-04-05T05:56:37;102322.97;;;17.51;47.14
77263;BME280;66373;52.334;4.806;2023-04-05T05:59:04;102319.47;;;17.46;47.29
77263;BME280;66373;52.334;4.806;2023-04-05T06:01:32;102326.44;;;17.50;47.13
77263;BME280;66373;52.334;4.806;2023-04-05T06:04:03;102309.94;;;17.45;47.08
77263;BME280;66373;52.334;4.806;2023-04-05T06:06:31;102327.28;;;17.49;47.14
77263;BME280;66373;52.334;4.806;2023-04-05T06:09:00;102316.88;;;17.46;47.09
77263;BME280;66373;52.334;4.806;2023-04-05T06:11:27;102326.44;;;17.50;47.10
77263;BME280;66373;52.334;4.806;2023-04-05T06:13:55;102334.25;;;17.50;46.93
77263;BME280;66373;52.334;4.806;2023-04-05T06:16:22;102332.50;;;17.50;46.99
77263;BME280;66373;52.334;4.806;2023-04-05T06:18:50;102337.72;;;17.52;47.00
77263;BME280;66373;52.334;4.806;2023-04-05T06:21:17;102335.13;;;17.52;47.00
77263;BME280;66373;52.334;4.806;2023-04-05T06:23:46;102336.00;;;17.52;46.98
77263;BME280;66373;52.334;4.806;2023-04-05T06:26:20;102322.94;;;17.48;46.92
77263;BME280;66373;52.334;4.806;2023-04-05T06:28:52;102335.13;;;17.52;46.67
77263;BME280;66373;52.334;4.806;2023-04-05T06:31:25;102329.94;;;17.55;46.60
77263;BME280;66373;52.334;4.806;2023-04-05T06:33:53;102336.00;;;17.54;46.45
77263;BME280;66373;52.334;4.806;2023-04-05T06:36:20;102326.47;;;17.56;46.33
77263;BME280;66373;52.334;4.806;2023-04-05T06:38:49;102334.28;;;17.56;46.19
77263;BME280;66373;52.334;4.806;2023-04-05T06:41:17;102320.34;;;17.48;46.48
77263;BME280;66373;52.334;4.806;2023-04-05T06:43:44;102333.41;;;17.57;46.47
77263;BME280;66373;52.334;4.806;2023-04-05T06:46:11;102322.13;;;17.55;46.61
77263;BME280;66373;52.334;4.806;2023-04-05T06:48:39;102333.44;;;17.60;46.53
77263;BME280;66373;52.334;4.806;2023-04-05T06:51:07;102331.72;;;17.62;46.75
77263;BME280;66373;52.334;4.806;2023-04-05T06:53:35;102324.78;;;17.62;46.61
77263;BME280;66373;52.334;4.806;2023-04-05T06:56:04;102325.66;;;17.63;46.53
77263;BME280;66373;52.334;4.806;2023-04-05T06:58:31;102324.78;;;17.64;46.56
77263;BME280;66373;52.334;4.806;2023-04-05T07:00:59;102316.97;;;17.62;46.61
77263;BME280;66373;52.334;4.806;2023-04-05T07:03:27;102316.16;;;17.65;46.52
77263;BME280;66373;52.334;4.806;2023-04-05T07:05:55;102316.13;;;17.68;46.65
77263;BME280;66373;52.334;4.806;2023-04-05T07:08:24;102319.59;;;17.70;46.50
77263;BME280;66373;52.334;4.806;2023-04-05T07:10:52;102318.75;;;17.73;47.05
77263;BME280;66373;52.334;4.806;2023-04-05T07:13:22;102288.34;;;17.61;47.29
77263;BME280;66373;52.334;4.806;2023-04-05T07:15:50;102320.50;;;17.75;47.53
77263;BME280;66373;52.334;4.806;2023-04-05T07:18:17;102315.31;;;17.77;47.19
77263;BME280;66373;52.334;4.806;2023-04-05T07:20:46;102319.66;;;17.79;46.97
77263;BME280;66373;52.334;4.806;2023-04-05T07:23:14;102308.31;;;17.70;47.38
77263;BME280;66373;52.334;4.806;2023-04-05T07:25:42;102310.97;;;17.77;47.35
77263;BME280;66373;52.334;4.806;2023-04-05T07:28:10;102315.31;;;17.81;47.29
77263;BME280;66373;52.334;4.806;2023-04-05T07:30:39;102238.81;;;17.41;47.20
77263;BME280;66373;52.334;4.806;2023-04-05T07:33:07;102310.13;;;17.84;46.99
77263;BME280;66373;52.334;4.806;2023-04-05T07:35:34;102311.88;;;17.85;47.29
77263;BME280;66373;52.334;4.806;2023-04-05T07:38:02;102307.53;;;17.83;47.46
77263;BME280;66373;52.334;4.806;2023-04-05T07:40:29;102286.66;;;17.74;47.54
77263;BME280;66373;52.334;4.806;2023-04-05T07:42:57;102310.16;;;17.89;47.36
77263;BME280;66373;52.334;4.806;2023-04-05T07:45:24;102315.34;;;17.93;47.33
77263;BME280;66373;52.334;4.806;2023-04-05T07:47:53;102287.56;;;17.83;47.57
77263;BME280;66373;52.334;4.806;2023-04-05T07:50:21;102305.81;;;17.98;47.69
77263;BME280;66373;52.334;4.806;2023-04-05T07:52:48;102305.81;;;17.98;47.64
77263;BME280;66373;52.334;4.806;2023-04-05T07:55:15;102311.91;;;18.01;47.88
77263;BME280;66373;52.334;4.806;2023-04-05T07:57:43;102307.56;;;18.03;48.06
77263;BME280;66373;52.334;4.806;2023-04-05T08:00:11;102277.19;;;17.91;47.97
77263;BME280;66373;52.334;4.806;2023-04-05T08:02:41;102302.38;;;18.07;47.70
77263;BME280;66373;52.334;4.806;2023-04-05T08:05:10;102291.94;;;18.03;47.77
77263;BME280;66373;52.334;4.806;2023-04-05T08:07:38;102277.16;;;17.97;47.94
77263;BME280;66373;52.334;4.806;2023-04-05T08:10:07;102268.47;;;17.93;47.50
77263;BME280;66373;52.334;4.806;2023-04-05T08:12:34;102301.53;;;18.14;47.80
77263;BME280;66373;52.334;4.806;2023-04-05T08:15:03;102303.25;;;18.15;47.84
77263;BME280;66373;52.334;4.806;2023-04-05T08:17:32;102292.84;;;18.11;47.71
77263;BME280;66373;52.334;4.806;2023-04-05T08:19:59;102272.00;;;18.05;47.80
77263;BME280;66373;52.334;4.806;2023-04-05T08:22:29;102302.38;;;18.24;47.57
77263;BME280;66373;52.334;4.806;2023-04-05T08:24:57;102307.59;;;18.27;47.84
77263;BME280;66373;52.334;4.806;2023-04-05T08:27:25;102289.34;;;18.22;47.72
77263;BME280;66373;52.334;4.806;2023-04-05T08:29:53;102288.50;;;18.22;47.74
77263;BME280;66373;52.334;4.806;2023-04-05T08:32:20;102300.69;;;18.35;47.65
77263;BME280;66373;52.334;4.806;2023-04-05T08:34:48;102287.66;;;18.34;47.80
77263;BME280;66373;52.334;4.806;2023-04-05T08:37:15;102294.59;;;18.41;47.53
77263;BME280;66373;52.334;4.806;2023-04-05T08:39:43;102290.25;;;18.35;47.77
77263;BME280;66373;52.334;4.806;2023-04-05T08:42:14;102295.47;;;18.41;47.65
77263;BME280;66373;52.334;4.806;2023-04-05T08:44:43;102287.66;;;18.41;47.78
77263;BME280;66373;52.334;4.806;2023-04-05T08:47:11;102288.53;;;18.43;47.81
77263;BME280;66373;52.334;4.806;2023-04-05T08:49:42;102286.78;;;18.42;47.80
77263;BME280;66373;52.334;4.806;2023-04-05T08:52:11;102294.59;;;18.50;47.64
77263;BME280;66373;52.334;4.806;2023-04-05T08:54:38;102290.25;;;18.53;47.46
77263;BME280;66373;52.334;4.806;2023-04-05T08:57:07;102278.97;;;18.56;47.71
77263;BME280;66373;52.334;4.806;2023-04-05T08:59:37;102286.81;;;18.63;47.57
77263;BME280;66373;52.334;4.806;2023-04-05T09:02:13;102198.19;;;18.19;47.53
77263;BME280;66373;52.334;4.806;2023-04-05T09:04:43;102282.47;;;18.70;47.37
77263;BME280;66373;52.334;4.806;2023-04-05T09:07:12;102214.72;;;18.35;47.52
77263;BME280;66373;52.334;4.806;2023-04-05T09:09:43;102174.78;;;18.16;47.36
77263;BME280;66373;52.334;4.806;2023-04-05T09:12:13;102225.97;;;18.52;47.35
77263;BME280;66373;52.334;4.806;2023-04-05T09:14:40;102249.47;;;18.69;47.17
77263;BME280;66373;52.334;4.806;2023-04-05T09:17:08;102262.44;;;18.78;47.31
77263;BME280;66373;52.334;4.806;2023-04-05T09:19:35;102271.13;;;18.89;47.17
77263;BME280;66373;52.334;4.806;2023-04-05T09:22:03;102224.25;;;18.67;47.30
77263;BME280;66373;52.334;4.806;2023-04-05T09:24:36;102280.66;;;19.03;47.23
77263;BME280;66373;52.334;4.806;2023-04-05T09:27:07;102257.25;;;18.86;47.17
77263;BME280;66373;52.334;4.806;2023-04-05T09:29:38;102268.50;;;18.98;47.17
77263;BME280;66373;52.334;4.806;2023-04-05T09:32:07;102219.00;;;18.73;47.04
77263;BME280;66373;52.334;4.806;2023-04-05T09:34:35;102274.56;;;19.08;46.91
77263;BME280;66373;52.334;4.806;2023-04-05T09:37:13;102279.78;;;19.14;47.04
77263;BME280;66373;52.334;4.806;2023-04-05T09:39:48;102205.97;;;18.79;47.10
77263;BME280;66373;52.334;4.806;2023-04-05T09:42:20;102246.78;;;18.95;47.44
77263;BME280;66373;52.334;4.806;2023-04-05T09:44:56;102174.75;;;18.68;46.89
77263;BME280;66373;52.334;4.806;2023-04-05T09:47:56;102181.69;;;18.69;47.20
77263;BME280;66373;52.334;4.806;2023-04-05T09:50:34;102260.59;;;19.24;46.95
77263;BME280;66373;52.334;4.806;2023-04-05T09:53:06;102271.88;;;19.25;46.78
77263;BME280;66373;52.334;4.806;2023-04-05T09:55:34;102265.78;;;19.33;46.92
77263;BME280;66373;52.334;4.806;2023-04-05T09:58:01;102268.38;;;19.33;47.01
77263;BME280;66373;52.334;4.806;2023-04-05T10:00:30;102229.34;;;19.09;47.15
77263;BME280;66373;52.334;4.806;2023-04-05T10:02:58;102255.34;;;19.37;46.99
77263;BME280;66373;52.334;4.806;2023-04-05T10:05:27;102250.09;;;19.40;47.06
77263;BME280;66373;52.334;4.806;2023-04-05T10:07:58;102157.31;;;18.81;46.95
77263;BME280;66373;52.334;4.806;2023-04-05T10:10:28;102211.94;;;19.20;47.09
77263;BME280;66373;52.334;4.806;2023-04-05T10:12:57;102237.06;;;19.37;46.66
77263;BME280;66373;52.334;4.806;2023-04-05T10:15:25;102235.31;;;19.45;46.88
77263;BME280;66373;52.334;4.806;2023-04-05T10:18:01;102223.13;;;19.47;46.50
77263;BME280;66373;52.334;4.806;2023-04-05T10:20:32;102236.13;;;19.54;46.75
77263;BME280;66373;52.334;4.806;2023-04-05T10:23:07;102184.06;;;19.25;46.45
77263;BME280;66373;52.334;4.806;2023-04-05T10:25:46;102157.19;;;19.14;46.41
77263;BME280;66373;52.334;4.806;2023-04-05T10:28:25;102240.44;;;19.66;46.57
77263;BME280;66373;52.334;4.806;2023-04-05T10:30:58;102236.06;;;19.68;46.50
77263;BME280;66373;52.334;4.806;2023-04-05T10:33:35;102139.78;;;19.13;46.23
77263;BME280;66373;52.334;4.806;2023-04-05T10:36:08;102132.84;;;19.14;46.15
77263;BME280;66373;52.334;4.806;2023-04-05T10:38:48;102175.31;;;19.40;46.14
77263;BME280;66373;52.334;4.806;2023-04-05T10:41:21;102121.53;;;19.16;46.46
77263;BME280;66373;52.334;4.806;2023-04-05T10:43:50;102138.84;;;19.23;46.46
77263;BME280;66373;52.334;4.806;2023-04-05T10:46:21;102235.09;;;19.81;46.30
77263;BME280;66373;52.334;4.806;2023-04-05T10:48:58;102183.94;;;19.56;46.07
77263;BME280;66373;52.334;4.806;2023-04-05T10:51:31;102140.53;;;19.33;46.23
77263;BME280;66373;52.334;4.806;2023-04-05T10:54:00;102222.91;;;19.85;46.45
77263;BME280;66373;52.334;4.806;2023-04-05T10:56:28;102176.06;;;19.62;46.41
77263;BME280;66373;52.334;4.806;2023-04-05T10:58:56;102214.16;;;19.89;46.29
77263;BME280;66373;52.334;4.806;2023-04-05T11:01:25;102156.09;;;19.52;46.22
77263;BME280;66373;52.334;4.806;2023-04-05T11:03:54;102216.78;;;19.90;46.06
77263;BME280;66373;52.334;4.806;2023-04-05T11:06:23;102162.16;;;19.61;46.36
77263;BME280;66373;52.334;4.806;2023-04-05T11:08:54;102104.88;;;19.34;46.14
77263;BME280;66373;52.334;4.806;2023-04-05T11:11:24;102107.47;;;19.37;46.22
77263;BME280;66373;52.334;4.806;2023-04-05T11:13:54;102217.59;;;19.97;46.45
77263;BME280;66373;52.334;4.806;2023-04-05T11:16:23;102182.00;;;19.82;46.11
77263;BME280;66373;52.334;4.806;2023-04-05T11:19:05;102169.84;;;19.78;46.14
77263;BME280;66373;52.334;4.806;2023-04-05T11:21:33;102147.34;;;19.65;45.72
77263;BME280;66373;52.334;4.806;2023-04-05T11:24:03;102149.03;;;19.72;46.10
77263;BME280;66373;52.334;4.806;2023-04-05T11:26:32;102171.53;;;19.88;46.16
77263;BME280;66373;52.334;4.806;2023-04-05T11:29:03;102119.53;;;19.59;45.71
77263;BME280;66373;52.334;4.806;2023-04-05T11:31:33;102150.66;;;19.82;45.82
77263;BME280;66373;52.334;4.806;2023-04-05T11:34:02;102204.41;;;20.14;45.94
77263;BME280;66373;52.334;4.806;2023-04-05T11:36:38;102126.34;;;19.77;46.14
77263;BME280;66373;52.334;4.806;2023-04-05T11:39:25;102159.31;;;19.93;46.00
77263;BME280;66373;52.334;4.806;2023-04-05T11:41:57;102177.47;;;20.04;45.76
77263;BME280;66373;52.334;4.806;2023-04-05T11:44:24;102180.88;;;20.17;46.11
77263;BME280;66373;52.334;4.806;2023-04-05T11:46:54;102180.84;;;20.18;46.17
77263;BME280;66373;52.334;4.806;2023-04-05T11:49:22;102129.72;;;19.91;45.65
77263;BME280;66373;52.334;4.806;2023-04-05T11:51:52;102159.19;;;20.06;45.98
77263;BME280;66373;52.334;4.806;2023-04-05T11:54:29;102170.38;;;20.21;45.90
77263;BME280;66373;52.334;4.806;2023-04-05T11:56:57;102167.75;;;20.23;45.63
77263;BME280;66373;52.334;4.806;2023-04-05T11:59:31;102166.00;;;20.25;45.69
77263;BME280;66373;52.334;4.806;2023-04-05T12:02:00;102161.66;;;20.22;45.97
77263;BME280;66373;52.334;4.806;2023-04-05T12:04:29;102161.59;;;20.28;46.08
77263;BME280;66373;52.334;4.806;2023-04-05T12:07:11;102160.69;;;20.31;46.15
77263;BME280;66373;52.334;4.806;2023-04-05T12:10:01;102114.78;;;20.04;45.74
77263;BME280;66373;52.334;4.806;2023-04-05T12:12:33;102152.06;;;20.26;45.73
77263;BME280;66373;52.334;4.806;2023-04-05T12:15:02;102101.81;;;19.99;45.97
77263;BME280;66373;52.334;4.806;2023-04-05T12:17:41;102165.00;;;20.35;45.70
77263;BME280;66373;52.334;4.806;2023-04-05T12:20:11;102097.34;;;20.08;45.57
77263;BME280;66373;52.334;4.806;2023-04-05T12:22:43;102143.22;;;20.34;45.81
77263;BME280;66373;52.334;4.806;2023-04-05T12:25:11;102099.88;;;20.17;45.40
77263;BME280;66373;52.334;4.806;2023-04-05T12:27:40;102143.19;;;20.42;45.56
77263;BME280;66373;52.334;4.806;2023-04-05T12:30:12;102140.56;;;20.44;45.50
77263;BME280;66373;52.334;4.806;2023-04-05T12:32:49;102068.72;;;19.98;45.59
77263;BME280;66373;52.334;4.806;2023-04-05T12:35:18;102101.59;;;20.21;45.83
77263;BME280;66373;52.334;4.806;2023-04-05T12:37:49;102141.44;;;20.44;45.32
77263;BME280;66373;52.334;4.806;2023-04-05T12:40:20;102111.13;;;20.25;45.59
77263;BME280;66373;52.334;4.806;2023-04-05T12:42:49;102135.34;;;20.42;44.89
77263;BME280;66373;52.334;4.806;2023-04-05T12:45:17;102079.94;;;20.08;45.10
77263;BME280;66373;52.334;4.806;2023-04-05T12:47:49;102121.44;;;20.42;44.48
77263;BME280;66373;52.334;4.806;2023-04-05T12:50:19;102117.97;;;20.38;44.45
77263;BME280;66373;52.334;4.806;2023-04-05T12:52:58;102088.50;;;20.22;44.61
77263;BME280;66373;52.334;4.806;2023-04-05T12:55:27;102053.00;;;20.02;43.71
77263;BME280;66373;52.334;4.806;2023-04-05T12:57:57;102110.13;;;20.38;44.11
77263;BME280;66373;52.334;4.806;2023-04-05T13:00:27;102105.72;;;20.43;43.76
77263;BME280;66373;52.334;4.806;2023-04-05T13:02:56;102088.28;;;20.45;44.15
77263;BME280;66373;52.334;4.806;2023-04-05T13:05:25;102109.06;;;20.54;43.85
77263;BME280;66373;52.334;4.806;2023-04-05T13:07:52;102094.31;;;20.52;44.26
77263;BME280;66373;52.334;4.806;2023-04-05T13:10:24;102108.09;;;20.63;44.28